Time;durP1;ratioP1;P1;durP2;ratioP2;P2;SDS_P1;SDS_P2;PMS_P1;PMS_P2;Temp;Humidity;BMP_temperature;BMP_pressure;BME280_temperature;BME280_humidity;BME280_pressure;Samples;Min_cycle;Max_cycle;Signal;HPM_P1;HPM_P2
2023/04/12 00:00:37;;;;;;;9.35;5.45;;;;;;;7.97;100.00;100205.13;5113635;28;20414;-44
2023/04/12 00:03:04;;;;;;;10.00;4.45;;;;;;;7.82;100.00;100176.81;5114423;28;20031;-44
2023/04/12 00:05:30;;;;;;;10.35;5.18;;;;;;;8.16;100.00;100218.50;5113628;28;20123;-45
2023/04/12 00:07:55;;;;;;;6.97;4.65;;;;;;;7.72;100.00;100149.16;5113636;28;20451;-45
2023/04/12 00:10:21;;;;;;;8.23;5.15;;;;;;;8.14;100.00;100215.94;5114718;28;20050;-45
2023/04/12 00:12:46;;;;;;;10.00;5.32;;;;;;;8.14;100.00;100208.09;5114198;28;20042;-44
2023/04/12 00:15:12;;;;;;;10.50;5.70;;;;;;;8.14;100.00;100209.84;5111680;28;20038;-44
2023/04/12 00:17:38;;;;;;;9.38;5.57;;;;;;;7.93;100.00;100154.59;5114386;28;20131;-44
2023/04/12 00:20:04;;;;;;;8.68;5.38;;;;;;;7.80;100.00;100131.44;5114107;28;20035;-43
2023/04/12 00:22:30;;;;;;;10.50;5.32;;;;;;;8.05;100.00;100160.34;5112580;28;20038;-45
2023/04/12 00:24:57;;;;;;;8.43;4.80;;;;;;;7.88;100.00;100125.03;5113171;28;20035;-45
2023/04/12 00:27:22;;;;;;;11.07;5.57;;;;;;;8.14;100.00;100152.19;5113893;28;20379;-45
2023/04/12 00:29:47;;;;;;;10.35;4.50;;;;;;;8.05;100.00;100124.50;5112363;28;20122;-43
2023/04/12 00:32:13;;;;;;;8.98;4.78;;;;;;;8.14;100.00;100115.47;5112413;28;20114;-45
2023/04/12 00:34:38;;;;;;;11.63;4.53;;;;;;;8.10;100.00;100106.84;5113680;28;20099;-44
2023/04/12 00:37:03;;;;;;;9.70;4.93;;;;;;;8.14;100.00;100113.72;5112371;28;20445;-44
2023/04/12 00:39:29;;;;;;;8.00;4.25;;;;;;;8.14;100.00;100118.09;5112286;28;20040;-45
2023/04/12 00:41:55;;;;;;;7.90;4.35;;;;;;;8.13;100.00;100108.50;5112334;28;20024;-45
2023/04/12 00:44:22;;;;;;;5.97;4.03;;;;;;;7.82;100.00;100056.28;5113807;28;20043;-45
2023/04/12 00:46:47;;;;;;;9.50;4.28;;;;;;;7.79;100.00;100031.03;5113673;28;20036;-45
2023/04/12 00:49:13;;;;;;;8.68;4.40;;;;;;;8.08;100.00;100085.09;5112446;28;20110;-46
2023/04/12 00:51:38;;;;;;;4.53;3.90;;;;;;;7.73;100.00;100012.91;5113560;28;20039;-44
2023/04/12 00:54:05;;;;;;;7.03;4.05;;;;;;;8.08;100.00;100087.72;5112467;28;20023;-44
2023/04/12 00:56:31;;;;;;;7.60;3.92;;;;;;;8.07;100.00;100064.16;5113293;28;20402;-44
2023/04/12 00:58:57;;;;;;;6.28;3.72;;;;;;;7.75;100.00;100005.00;5094871;28;20158;-45
2023/04/12 01:01:22;;;;;;;6.03;3.78;;;;;;;8.07;100.00;100065.03;5112125;28;20042;-43
2023/04/12 01:03:49;;;;;;;7.07;3.47;;;;;;;8.05;100.00;100039.78;5112338;28;20037;-43
2023/04/12 01:06:36;;;;;;;6.35;3.85;;;;;;;8.08;100.00;100032.66;5110898;28;20467;-44
2023/04/12 01:09:30;;;;;;;7.38;3.65;;;;;;;8.07;100.00;100019.59;5111753;28;20058;-44
2023/04/12 01:12:01;;;;;;;6.85;3.70;;;;;;;8.08;100.00;100009.06;5112964;28;20038;-44
2023/04/12 01:14:32;;;;;;;;;;;;;;;8.08;100.00;100005.59;5113615;28;20377;-44
2023/04/12 01:17:04;;;;;;;5.55;2.90;;;;;;;7.69;100.00;99940.56;5112250;28;19912;-45
2023/04/12 01:19:52;;;;;;;5.72;2.78;;;;;;;8.01;100.00;99996.22;5111793;28;20501;-43
2023/04/12 01:22:30;;;;;;;6.22;3.45;;;;;;;7.65;100.00;99923.25;5112092;28;20039;-45
2023/04/12 01:25:22;;;;;;;4.22;2.92;;;;;;;8.04;100.00;99976.00;5113129;28;20031;-43
2023/04/12 01:27:49;;;;;;;3.97;2.90;;;;;;;7.76;100.00;99910.63;5112808;28;20035;-44
2023/04/12 01:30:16;;;;;;;3.55;2.60;;;;;;;7.72;100.00;99906.41;5112569;28;20031;-46
2023/04/12 01:32:45;;;;;;;7.00;3.17;;;;;;;8.03;100.00;99955.94;5094591;28;20027;-45
2023/04/12 01:35:12;;;;;;;5.25;2.72;;;;;;;7.69;100.00;99889.94;5111548;28;20055;-44
2023/04/12 01:37:38;;;;;;;6.07;2.83;;;;;;;7.98;100.00;99941.31;5112466;27;20118;-44
2023/04/12 01:40:08;;;;;;;5.07;2.92;;;;;;;7.96;100.00;99937.88;5111686;28;20078;-44
2023/04/12 01:42:33;;;;;;;5.38;2.80;;;;;;;7.93;100.00;99926.63;5112514;28;20106;-43
2023/04/12 01:44:59;;;;;;;6.70;2.50;;;;;;;7.92;100.00;99918.78;5111351;28;20123;-43
2023/04/12 01:47:24;;;;;;;5.88;2.80;;;;;;;7.90;100.00;99913.63;5112581;28;20388;-45
2023/04/12 01:50:02;;;;;;;5.80;2.63;;;;;;;7.88;100.00;99909.34;5112344;28;20062;-44
2023/04/12 01:52:30;;;;;;;3.28;2.38;;;;;;;7.85;100.00;99905.06;5110746;28;20426;-46
2023/04/12 01:54:57;;;;;;;3.28;2.28;;;;;;;7.87;100.00;99903.25;5109940;28;20066;-45
2023/04/12 01:57:22;;;;;;;4.32;2.15;;;;;;;7.79;100.00;99884.31;5112724;28;20032;-45
2023/04/12 01:59:49;;;;;;;3.95;2.00;;;;;;;7.79;100.00;99871.22;5111118;28;20028;-44
2023/04/12 02:02:14;;;;;;;3.80;2.28;;;;;;;7.86;100.00;99882.34;5111193;28;20036;-45
2023/04/12 02:04:41;;;;;;;4.15;2.28;;;;;;;7.52;100.00;99821.59;5111155;28;20106;-44
2023/04/12 02:07:06;;;;;;;3.05;1.85;;;;;;;7.80;100.00;99851.13;5094173;28;20436;-45
2023/04/12 02:09:37;;;;;;;3.47;2.28;;;;;;;7.64;100.00;99818.56;5112724;28;20048;-44
2023/04/12 02:12:02;;;;;;;3.10;2.33;;;;;;;7.83;100.00;99858.88;5111696;28;20470;-44
2023/04/12 02:14:30;;;;;;;3.95;2.38;;;;;;;7.84;100.00;99844.88;5111086;28;20027;-46
2023/04/12 02:16:56;;;;;;;3.97;2.13;;;;;;;7.83;100.00;99843.16;5111278;28;20440;-45
2023/04/12 02:19:22;;;;;;;4.57;2.40;;;;;;;7.81;100.00;99835.34;5112158;28;20394;-45
2023/04/12 02:21:48;;;;;;;5.00;2.22;;;;;;;7.47;100.00;99785.13;5110925;28;20028;-46
2023/04/12 02:24:14;;;;;;;5.35;2.30;;;;;;;7.83;100.00;99840.53;5111183;28;20028;-44
2023/04/12 02:26:40;;;;;;;3.33;2.55;;;;;;;7.80;100.00;99828.41;5110265;28;20038;-47
2023/04/12 02:29:09;;;;;;;5.75;2.20;;;;;;;7.59;100.00;99778.59;5110488;28;20081;-46
2023/04/12 02:31:35;;;;;;;5.15;2.28;;;;;;;7.46;100.00;99748.50;5096041;28;20388;-45
2023/04/12 02:34:01;;;;;;;5.10;2.58;;;;;;;7.47;100.00;99751.09;5096073;28;20067;-46
2023/04/12 02:36:27;;;;;;;4.60;2.58;;;;;;;7.43;100.00;99730.31;5095904;28;20047;-46
2023/04/12 02:38:53;;;;;;;3.35;2.33;;;;;;;7.45;100.00;99738.94;5095819;28;20124;-47
2023/04/12 02:41:19;;;;;;;3.90;2.20;;;;;;;7.48;100.00;99739.69;5110138;28;20132;-45
2023/04/12 02:43:45;;;;;;;4.55;2.28;;;;;;;7.49;100.00;99730.94;5114881;28;20032;-47
2023/04/12 02:46:15;;;;;;;5.18;2.53;;;;;;;7.48;100.00;99725.75;5116115;28;20188;-47
2023/04/12 02:48:40;;;;;;;4.10;2.97;;;;;;;7.49;100.00;99720.47;5114616;28;20127;-45
2023/04/12 02:51:06;;;;;;;4.47;2.80;;;;;;;7.82;100.00;99779.41;5115947;28;20121;-45
2023/04/12 02:53:31;;;;;;;3.20;2.53;;;;;;;7.83;100.00;99770.66;5114408;28;20110;-47
2023/04/12 02:56:00;;;;;;;9.05;3.30;;;;;;;7.82;100.00;99771.56;5115254;28;20446;-46
2023/04/12 02:58:26;;;;;;;8.18;3.13;;;;;;;7.84;100.00;99761.88;5113501;28;20046;-44
2023/04/12 03:00:51;;;;;;;5.07;2.72;;;;;;;7.53;100.00;99697.63;5115740;28;20027;-45
2023/04/12 03:03:17;;;;;;;7.55;3.50;;;;;;;7.82;100.00;99755.84;5114162;28;20031;-45
2023/04/12 03:05:46;;;;;;;5.25;3.25;;;;;;;7.80;100.00;99743.72;5115120;28;20035;-47
2023/04/12 03:08:14;;;;;;;5.88;3.13;;;;;;;7.82;100.00;99728.81;5115808;28;20047;-45
2023/04/12 03:10:39;;;;;;;6.50;4.05;;;;;;;7.38;100.00;99650.16;5113891;28;20054;-45
2023/04/12 03:13:05;;;;;;;6.85;3.03;;;;;;;7.80;100.00;99725.38;5114952;28;20478;-45
2023/04/12 03:15:30;;;;;;;4.47;3.20;;;;;;;7.81;100.00;99727.94;5112137;28;20118;-47
2023/04/12 03:17:56;;;;;;;6.13;4.03;;;;;;;7.58;100.00;99691.31;5108558;28;20032;-46
2023/04/12 03:20:23;;;;;;;4.95;3.40;;;;;;;7.82;100.00;99720.94;5112808;28;20109;-46
2023/04/12 03:22:49;;;;;;;5.55;3.45;;;;;;;7.84;100.00;99709.50;5098308;28;20028;-49
2023/04/12 03:25:16;;;;;;;4.25;3.35;;;;;;;7.85;100.00;99705.09;5102487;28;20486;-46
2023/04/12 03:27:42;;;;;;;4.70;3.53;;;;;;;7.81;100.00;99678.16;5106267;28;20036;-47
2023/04/12 03:30:10;;;;;;;5.75;3.60;;;;;;;7.47;100.00;99632.41;5093585;28;20039;-46
2023/04/12 03:32:35;;;;;;;5.53;3.80;;;;;;;7.91;100.00;99699.59;5099715;28;20043;-48
2023/04/12 03:35:01;;;;;;;6.15;3.90;;;;;;;7.89;100.00;99712.78;5104311;28;20048;-45
2023/04/12 03:37:26;;;;;;;4.45;3.55;;;;;;;7.91;100.00;99686.50;5094029;28;20096;-44
2023/04/12 03:39:51;;;;;;;4.00;3.60;;;;;;;7.93;100.00;99689.94;5097274;28;20479;-46
2023/04/12 03:42:16;;;;;;;4.40;4.00;;;;;;;7.92;100.00;99685.59;5108645;28;20088;-46
2023/04/12 03:44:42;;;;;;;5.60;3.95;;;;;;;7.94;100.00;99689.00;5112126;28;20028;-46
2023/04/12 03:47:07;;;;;;;5.43;3.97;;;;;;;7.59;100.00;99618.84;5112829;28;20054;-46
2023/04/12 03:49:33;;;;;;;4.82;3.50;;;;;;;7.94;100.00;99678.50;5113360;28;20046;-46
2023/04/12 03:51:58;;;;;;;4.03;3.20;;;;;;;7.72;100.00;99626.16;5112557;28;20040;-47
2023/04/12 03:54:23;;;;;;;3.90;3.10;;;;;;;7.96;100.00;99663.59;5112203;28;20367;-49
2023/04/12 03:56:49;;;;;;;4.45;3.38;;;;;;;7.98;100.00;99664.38;5113422;28;20066;-51
2023/04/12 03:59:14;;;;;;;3.97;3.40;;;;;;;7.60;100.00;99589.97;5109095;28;20432;-46
2023/04/12 04:01:40;;;;;;;4.63;3.47;;;;;;;7.99;100.00;99646.91;5113247;28;20494;-46
2023/04/12 04:04:06;;;;;;;3.25;2.95;;;;;;;7.79;100.00;99634.63;5112304;28;20118;-45
2023/04/12 04:06:33;;;;;;;3.38;3.08;;;;;;;7.97;100.00;99665.28;5112151;28;20071;-46
2023/04/12 04:08:58;;;;;;;4.00;3.40;;;;;;;7.99;100.00;99653.00;5113815;28;20055;-47
2023/04/12 04:11:24;;;;;;;4.93;2.72;;;;;;;7.64;100.00;99588.94;5110382;28;20050;-46
2023/04/12 04:13:50;;;;;;;4.30;3.30;;;;;;;7.61;100.00;99588.19;5101729;28;20064;-47
2023/04/12 04:16:16;;;;;;;4.10;3.70;;;;;;;7.74;100.00;99605.13;5096400;28;20117;-45
2023/04/12 04:18:42;;;;;;;4.90;3.35;;;;;;;7.69;100.00;99600.06;5111752;28;20039;-46
2023/04/12 04:21:07;;;;;;;4.30;3.90;;;;;;;7.99;100.00;99647.75;5114145;28;20036;-46
2023/04/12 04:23:39;;;;;;;5.28;4.05;;;;;;;8.07;100.00;99650.91;5085628;28;20399;-45
2023/04/12 04:26:10;;;;;;;5.55;4.05;;;;;;;7.91;100.00;99632.34;5109663;28;20023;-47
2023/04/12 04:28:41;;;;;;;4.93;4.43;;;;;;;8.08;100.00;99649.16;5109611;28;20030;-46
2023/04/12 04:31:09;;;;;;;6.38;5.78;;;;;;;8.10;100.00;99663.03;5093767;28;20395;-47
2023/04/12 04:33:34;;;;;;;6.50;5.65;;;;;;;8.13;100.00;99655.06;5094930;28;20123;-46
2023/04/12 04:36:01;;;;;;;6.38;5.78;;;;;;;8.12;100.00;99651.56;5111718;28;20123;-48
2023/04/12 04:38:27;;;;;;;6.38;5.70;;;;;;;7.75;100.00;99583.25;5111586;28;20034;-47
2023/04/12 04:40:52;;;;;;;7.68;6.88;;;;;;;8.08;100.00;99652.63;5109562;28;20036;-54
2023/04/12 04:43:19;;;;;;;8.02;6.68;;;;;;;8.14;100.00;99668.13;5103588;28;20028;-50
2023/04/12 04:45:48;;;;;;;9.43;8.23;;;;;;;8.16;100.00;99671.50;5101184;28;20027;-49
2023/04/12 04:48:13;;;;;;;10.15;9.07;;;;;;;7.83;100.00;99621.31;5112282;27;20398;-46
2023/04/12 04:50:38;;;;;;;11.43;10.00;;;;;;;7.77;100.00;99603.22;5111218;28;20038;-48
2023/04/12 04:53:04;;;;;;;11.75;10.63;;;;;;;7.86;100.00;99615.97;5111469;28;20084;-48
2023/04/12 04:55:29;;;;;;;11.68;10.38;;;;;;;8.14;100.00;99660.25;5113162;28;20027;-49
2023/04/12 04:57:56;;;;;;;11.50;10.32;;;;;;;8.12;100.00;99635.00;5108113;28;20111;-48
2023/04/12 05:00:24;;;;;;;11.15;10.00;;;;;;;7.92;100.00;99607.84;5102227;28;20038;-47
2023/04/12 05:02:52;;;;;;;13.38;10.45;;;;;;;8.27;100.00;99663.19;5077406;28;20428;-49
2023/04/12 05:05:21;;;;;;;12.20;10.57;;;;;;;8.34;100.00;99662.94;5111127;28;20494;-47
2023/04/12 05:07:47;;;;;;;14.13;9.95;;;;;;;8.38;100.00;99656.63;5112384;28;20313;-47
2023/04/12 05:10:12;;;;;;;12.82;9.98;;;;;;;8.15;100.00;99611.28;5110702;28;20130;-46
2023/04/12 05:12:37;;;;;;;14.00;10.13;;;;;;;8.40;100.00;99656.56;5112353;28;20031;-46
2023/04/12 05:15:03;;;;;;;12.98;10.00;;;;;;;8.01;100.00;99583.03;5112240;28;20073;-47
2023/04/12 05:17:29;;;;;;;14.73;8.75;;;;;;;8.45;100.00;99654.59;5112092;28;20351;-46
2023/04/12 05:19:54;;;;;;;11.50;9.07;;;;;;;8.44;100.00;99648.50;5111720;28;20533;-48
2023/04/12 05:22:20;;;;;;;12.23;8.98;;;;;;;8.46;100.00;99654.50;5112875;28;20034;-49
2023/04/12 05:24:49;;;;;;;11.63;8.73;;;;;;;8.49;100.00;99653.56;5112964;28;20063;-48
2023/04/12 05:27:15;;;;;;;16.98;8.95;;;;;;;8.12;100.00;99586.06;5112953;28;20044;-48
2023/04/12 05:29:41;;;;;;;17.83;7.75;;;;;;;8.51;100.00;99653.47;5112748;28;20463;-47
2023/04/12 05:32:07;;;;;;;14.38;9.18;;;;;;;8.26;100.00;99609.06;5112844;28;20027;-46
2023/04/12 05:34:32;;;;;;;18.00;6.70;;;;;;;8.53;100.00;99649.00;5112801;28;20402;-46
2023/04/12 05:36:58;;;;;;;17.50;7.35;;;;;;;8.53;100.00;99641.13;5111926;27;20059;-47
2023/04/12 05:39:24;;;;;;;16.40;6.35;;;;;;;8.44;100.00;99627.50;5112741;28;20085;-46
2023/04/12 05:41:50;;;;;;;17.63;6.03;;;;;;;8.44;100.00;99637.16;5112707;28;20186;-47
2023/04/12 05:44:15;;;;;;;15.98;5.28;;;;;;;8.51;100.00;99643.84;5112305;28;20110;-47
2023/04/12 05:46:41;;;;;;;11.80;4.88;;;;;;;8.24;100.00;99597.78;5112290;28;20181;-47
2023/04/12 05:49:06;;;;;;;16.65;5.47;;;;;;;8.60;100.00;99653.94;5111126;28;20356;-45
2023/04/12 05:51:32;;;;;;;17.95;4.93;;;;;;;8.26;100.00;99591.56;5112805;28;20038;-47
2023/04/12 05:53:57;;;;;;;13.98;4.68;;;;;;;8.25;100.00;99582.00;5111428;28;20039;-46
2023/04/12 05:56:22;;;;;;;16.65;4.60;;;;;;;8.67;100.00;99651.91;5111515;28;20032;-46
2023/04/12 05:58:48;;;;;;;20.00;5.32;;;;;;;8.34;100.00;99613.09;5111904;28;20034;-46
2023/04/12 06:01:15;;;;;;;21.20;4.78;;;;;;;8.27;100.00;99590.69;5111637;28;20283;-48
2023/04/12 06:03:42;;;;;;;21.63;5.25;;;;;;;8.65;100.00;99658.97;5110710;28;20144;-46
2023/04/12 06:06:07;;;;;;;18.40;3.80;;;;;;;8.33;100.00;99608.78;5111013;28;20056;-45
2023/04/12 06:08:33;;;;;;;20.60;4.75;;;;;;;8.23;100.00;99590.84;5111958;28;20048;-47
2023/04/12 06:10:58;;;;;;;22.70;3.85;;;;;;;8.68;100.00;99641.34;5112328;28;20029;-47
2023/04/12 06:13:23;;;;;;;20.83;4.20;;;;;;;8.36;100.00;99578.94;5111087;28;20076;-46
2023/04/12 06:15:49;;;;;;;16.90;3.72;;;;;;;8.69;100.00;99643.06;5112523;28;20407;-48
2023/04/12 06:18:14;;;;;;;21.27;4.82;;;;;;;8.44;100.00;99596.06;5112456;28;20034;-46
2023/04/12 06:20:40;;;;;;;26.05;6.03;;;;;;;8.62;100.00;99633.75;5111293;28;20070;-46
2023/04/12 06:23:05;;;;;;;15.63;3.95;;;;;;;8.77;100.00;99666.31;5110763;28;20067;-44
2023/04/12 06:25:31;;;;;;;19.90;4.05;;;;;;;8.71;100.00;99650.84;5112314;28;20035;-45
2023/04/12 06:27:56;;;;;;;22.33;4.50;;;;;;;8.44;100.00;99603.06;5112225;28;20043;-46
2023/04/12 06:30:21;;;;;;;22.23;4.78;;;;;;;8.34;100.00;99592.13;5112267;28;20038;-47
2023/04/12 06:32:46;;;;;;;22.42;4.45;;;;;;;8.78;100.00;99668.03;5112087;28;20044;-49
2023/04/12 06:35:12;;;;;;;26.17;4.53;;;;;;;8.29;100.00;99585.38;5112511;28;20043;-44
2023/04/12 06:37:37;;;;;;;25.38;4.68;;;;;;;8.65;100.00;99651.97;5112562;28;20043;-44
2023/04/12 06:40:03;;;;;;;23.75;5.03;;;;;;;8.76;100.00;99667.22;5112142;28;20110;-46
2023/04/12 06:42:29;;;;;;;31.27;5.20;;;;;;;8.72;100.00;99644.69;5110754;28;20032;-48
2023/04/12 06:44:54;;;;;;;22.90;5.30;;;;;;;8.53;100.00;99609.66;5111093;28;20031;-45
2023/04/12 06:47:21;;;;;;;24.48;4.38;;;;;;;8.88;100.00;99659.69;5111978;28;20032;-46
2023/04/12 06:49:46;;;;;;;26.17;4.72;;;;;;;8.83;100.00;99650.31;5111019;28;20429;-46
2023/04/12 06:52:12;;;;;;;20.17;4.25;;;;;;;8.68;100.00;99606.38;5112243;28;20028;-47
2023/04/12 06:54:38;;;;;;;28.15;4.57;;;;;;;8.98;100.00;99653.13;5111057;28;20126;-46
2023/04/12 06:57:08;;;;;;;26.50;4.22;;;;;;;9.03;100.00;99652.91;5112380;28;20046;-45
2023/04/12 06:59:33;;;;;;;20.33;4.43;;;;;;;8.81;100.00;99605.78;5110761;28;20437;-45
2023/04/12 07:01:58;;;;;;;15.85;4.07;;;;;;;9.23;100.00;99665.97;5111923;28;20067;-46
2023/04/12 07:04:23;;;;;;;18.83;4.30;;;;;;;9.23;100.00;99650.22;5112143;28;20034;-45
2023/04/12 07:06:49;;;;;;;28.33;4.55;;;;;;;9.31;100.00;99666.47;5112062;28;20040;-46
2023/04/12 07:09:14;;;;;;;20.48;4.55;;;;;;;9.36;100.00;99664.53;5111842;28;20058;-47
2023/04/12 07:11:40;;;;;;;18.95;4.05;;;;;;;9.37;100.00;99671.47;5110731;28;20032;-46
2023/04/12 07:14:05;;;;;;;17.15;4.35;;;;;;;8.99;100.00;99597.06;5113403;28;20039;-48
2023/04/12 07:16:31;;;;;;;24.02;5.15;;;;;;;9.09;100.00;99600.13;5115518;28;20024;-48
2023/04/12 07:18:56;;;;;;;21.85;4.20;;;;;;;9.49;100.00;99659.53;5115459;28;20482;-45
2023/04/12 07:21:22;;;;;;;15.77;4.28;;;;;;;9.67;100.00;99658.69;5115739;28;20032;-47
2023/04/12 07:23:50;;;;;;;19.00;4.35;;;;;;;10.01;100.00;99653.50;5115548;28;20042;-46
2023/04/12 07:26:15;;;;;;;19.90;3.63;;;;;;;10.50;100.00;99588.81;5112548;28;20062;-46
2023/04/12 07:28:40;;;;;;;19.55;3.75;;;;;;;11.41;100.00;99583.03;5112883;28;20541;-46
2023/04/12 07:31:06;;;;;;;15.35;4.00;;;;;;;12.89;100.00;99641.16;5112830;28;20051;-45
2023/04/12 07:33:33;;;;;;;16.40;3.80;;;;;;;13.42;100.00;99610.59;5113652;28;20078;-46
2023/04/12 07:35:59;;;;;;;9.02;3.17;;;;;;;13.90;100.00;99590.69;5113892;28;20119;-45
2023/04/12 07:38:25;;;;;;;14.82;3.38;;;;;;;14.46;100.00;99619.56;5114100;28;20043;-45
2023/04/12 07:40:50;;;;;;;12.25;3.22;;;;;;;14.64;100.00;99622.78;5114303;28;20130;-47
2023/04/12 07:43:15;;;;;;;11.18;3.25;;;;;;;14.61;100.00;99690.03;5113872;28;20092;-48
2023/04/12 07:45:41;;;;;;;16.50;4.70;;;;;;;13.58;100.00;99615.72;5113607;28;20043;-47
2023/04/12 07:48:07;;;;;;;19.63;4.53;;;;;;;13.42;100.00;99676.66;5113400;28;20046;-49
2023/04/12 07:50:32;;;;;;;18.05;3.78;;;;;;;12.50;100.00;99638.22;5113291;28;20039;-48
2023/04/12 07:53:17;;;;;;;14.18;3.78;;;;;;;12.29;100.00;99661.44;5111920;28;20126;-46
2023/04/12 07:55:42;;;;;;;18.50;4.80;;;;;;;11.94;100.00;99627.50;5113669;28;20077;-46
2023/04/12 07:58:08;;;;;;;19.85;5.15;;;;;;;11.66;100.00;99615.84;5095314;28;20453;-46
2023/04/12 08:00:34;;;;;;;19.98;4.93;;;;;;;11.91;100.00;99668.06;5114067;28;20047;-46
2023/04/12 08:02:59;;;;;;;14.13;4.45;;;;;;;12.04;100.00;99655.03;5115000;27;20135;-46
2023/04/12 08:05:24;;;;;;;20.92;5.18;;;;;;;12.25;100.00;99669.66;5114895;27;20062;-46
2023/04/12 08:07:50;;;;;;;17.75;4.72;;;;;;;11.94;100.00;99609.88;5113311;28;20059;-48
2023/04/12 08:10:15;;;;;;;15.98;4.32;;;;;;;12.64;100.00;99680.50;5114821;28;20036;-47
2023/04/12 08:12:40;;;;;;;14.05;4.40;;;;;;;12.56;100.00;99684.53;5114558;28;20047;-46
2023/04/12 08:15:06;;;;;;;17.80;5.32;;;;;;;12.82;100.00;99686.47;5113409;28;20160;-46
2023/04/12 08:17:32;;;;;;;15.50;4.18;;;;;;;12.79;100.00;99637.34;5112788;28;20039;-45
2023/04/12 08:19:57;;;;;;;18.30;4.47;;;;;;;13.16;100.00;99693.28;5112702;28;20039;-46
2023/04/12 08:22:22;;;;;;;18.63;3.92;;;;;;;13.47;100.00;99698.38;5111343;28;20024;-46
2023/04/12 08:24:48;;;;;;;13.60;3.40;;;;;;;14.04;100.00;99686.72;5113102;28;20039;-48
2023/04/12 08:27:15;;;;;;;20.50;3.33;;;;;;;14.86;100.00;99710.41;5111520;28;20044;-45
2023/04/12 08:29:40;;;;;;;7.82;2.30;;;;;;;15.24;100.00;99729.00;5113296;28;20072;-48
2023/04/12 08:32:08;;;;;;;14.10;3.10;;;;;;;15.62;100.00;99713.09;5112123;28;20457;-46
2023/04/12 08:34:33;;;;;;;11.13;3.28;;;;;;;15.80;100.00;99722.41;5112992;28;20459;-48
2023/04/12 08:36:59;;;;;;;17.58;3.35;;;;;;;15.48;100.00;99660.19;5112835;28;20080;-47
2023/04/12 08:39:25;;;;;;;12.43;2.80;;;;;;;15.66;100.00;99712.78;5112521;28;20039;-46
2023/04/12 08:41:52;;;;;;;8.90;2.92;;;;;;;15.38;100.00;99659.94;5112755;28;20035;-45
2023/04/12 08:44:18;;;;;;;12.45;3.13;;;;;;;15.55;100.00;99650.84;5112730;28;20048;-46
2023/04/12 08:46:44;;;;;;;14.88;3.05;;;;;;;16.10;100.00;99700.78;5111345;28;20039;-47
2023/04/12 08:49:10;;;;;;;11.75;3.58;;;;;;;15.63;100.00;99675.00;5110941;28;20031;-45
2023/04/12 08:51:36;;;;;;;15.35;3.10;;;;;;;15.69;100.00;99701.97;5112394;28;20063;-48
2023/04/12 08:54:02;;;;;;;22.77;4.20;;;;;;;15.40;100.00;99695.19;5111292;28;20035;-50
2023/04/12 08:56:28;;;;;;;12.32;4.00;;;;;;;15.07;100.00;99695.72;5110678;28;20104;-46
2023/04/12 08:58:54;;;;;;;15.27;3.58;;;;;;;14.58;100.00;99678.78;5112178;28;20039;-47
2023/04/12 09:01:20;;;;;;;15.55;3.17;;;;;;;14.40;100.00;99664.13;5110847;28;20045;-47
2023/04/12 09:03:45;;;;;;;11.95;3.88;;;;;;;14.40;100.00;99674.72;5111313;28;20067;-48
2023/04/12 09:06:12;;;;;;;14.68;3.97;;;;;;;13.81;100.00;99608.00;5110522;28;20088;-50
2023/04/12 09:08:50;;;;;;;18.25;4.38;;;;;;;14.07;100.00;99670.66;5111858;28;20070;-47
2023/04/12 09:11:26;;;;;;;14.55;4.10;;;;;;;14.35;100.00;99682.13;5110848;28;20032;-50
2023/04/12 09:13:55;;;;;;;14.50;3.80;;;;;;;14.35;100.00;99672.41;5110674;28;20224;-46
2023/04/12 09:16:40;;;;;;;14.98;3.97;;;;;;;13.90;100.00;99631.22;5111984;28;20031;-46
2023/04/12 09:19:07;;;;;;;17.38;3.35;;;;;;;14.25;100.00;99704.81;5111988;28;20028;-48
2023/04/12 09:21:33;;;;;;;18.05;3.95;;;;;;;14.23;100.00;99688.19;5111568;28;20123;-47
2023/04/12 09:24:08;;;;;;;14.43;3.63;;;;;;;13.98;100.00;99639.50;5112009;28;20035;-46
2023/04/12 09:26:34;;;;;;;15.80;3.42;;;;;;;14.17;100.00;99633.00;5111820;28;20046;-46
2023/04/12 09:29:00;;;;;;;14.60;3.60;;;;;;;14.47;100.00;99686.63;5111671;28;20032;-44
2023/04/12 09:31:25;;;;;;;9.85;3.08;;;;;;;14.48;100.00;99697.09;5111607;28;20573;-46
2023/04/12 09:33:51;;;;;;;17.10;4.07;;;;;;;14.38;100.00;99692.50;5111480;28;20093;-45
2023/04/12 09:36:17;;;;;;;12.13;3.65;;;;;;;13.97;100.00;99639.63;5111000;28;20043;-46
2023/04/12 09:39:03;;;;;;;12.60;2.47;;;;;;;13.56;100.00;99637.00;5111388;28;20439;-46
2023/04/12 09:41:30;;;;;;;12.23;3.30;;;;;;;13.70;100.00;99694.28;5110124;28;20024;-45
2023/04/12 09:43:57;;;;;;;17.02;3.10;;;;;;;13.27;100.00;99628.25;5111527;28;20036;-47
2023/04/12 09:46:22;;;;;;;14.73;3.60;;;;;;;13.67;100.00;99634.50;5111419;28;20028;-46
2023/04/12 09:48:57;;;;;;;9.93;2.97;;;;;;;14.24;100.00;99674.88;5110160;28;20595;-45
2023/04/12 09:51:27;;;;;;;17.30;3.17;;;;;;;14.78;100.00;99686.25;5111401;28;20040;-46
2023/04/12 09:53:55;;;;;;;14.30;3.50;;;;;;;14.82;100.00;99690.41;5111539;28;20600;-46
2023/04/12 09:56:21;;;;;;;12.63;3.25;;;;;;;15.84;100.00;99688.56;5110196;28;20046;-46
2023/04/12 09:58:51;;;;;;;15.63;3.80;;;;;;;16.76;100.00;99640.00;5109848;28;20035;-45
2023/04/12 10:01:17;;;;;;;12.60;3.78;;;;;;;17.65;100.00;99701.28;5111148;28;20023;-47
2023/04/12 10:03:42;;;;;;;15.50;3.22;;;;;;;17.83;100.00;99683.81;5111390;28;20114;-46
2023/04/12 10:06:07;;;;;;;10.52;3.45;;;;;;;17.13;100.00;99693.81;5109790;28;20042;-47
2023/04/12 10:08:36;;;;;;;10.82;3.13;;;;;;;16.41;100.00;99657.72;5110783;28;20064;-46
2023/04/12 10:11:01;;;;;;;10.13;3.10;;;;;;;17.62;100.00;99704.19;5109737;28;20076;-50
2023/04/12 10:13:27;;;;;;;8.45;2.83;;;;;;;18.50;100.00;99687.19;5109820;28;20036;-48
2023/04/12 10:15:53;;;;;;;7.82;2.90;;;;;;;18.86;100.00;99693.06;5110928;28;20431;-46
2023/04/12 10:18:19;;;;;;;8.98;2.65;;;;;;;19.15;100.00;99707.44;5110903;28;20038;-48
2023/04/12 10:20:45;;;;;;;11.60;3.05;;;;;;;19.67;92.44;99679.81;5109675;28;20039;-46
2023/04/12 10:23:11;;;;;;;7.22;2.60;;;;;;;20.09;84.68;99627.88;5092979;28;20126;-48
2023/04/12 10:25:38;;;;;;;10.07;2.85;;;;;;;-142.64;100.00;58178.75;5109491;28;20462;-48
2023/04/12 10:28:17;;;;;;;7.13;2.42;;;;;;;21.05;nan;99700.06;5109617;28;20035;-52
2023/04/12 10:30:43;;;;;;;7.90;2.35;;;;;;;21.66;nan;99688.91;5109851;28;20035;-46
2023/04/12 10:33:08;;;;;;;9.52;2.80;;;;;;;22.08;nan;99703.56;5109420;28;20509;-46
2023/04/12 10:35:58;;;;;;;8.77;2.72;;;;;;;21.61;nan;99707.28;5110299;28;20043;-47
2023/04/12 10:38:26;;;;;;;7.43;3.00;;;;;;;21.37;nan;99705.09;5110659;28;20075;-46
2023/04/12 10:41:17;;;;;;;9.57;3.25;;;;;;;21.22;nan;99701.19;5088721;28;20047;-45
2023/04/12 10:43:50;;;;;;;9.02;3.30;;;;;;;20.21;nan;99652.63;5070536;28;20063;-45
2023/04/12 10:46:37;;;;;;;8.13;2.40;;;;;;;19.19;nan;99703.53;5069611;28;20447;-48
2023/04/12 10:49:09;;;;;;;6.20;2.03;;;;;;;18.31;nan;99686.13;5071237;28;20430;-49
2023/04/12 10:51:35;;;;;;;8.77;2.40;;;;;;;18.86;nan;99695.72;5074108;28;20127;-50
2023/04/12 10:54:06;;;;;;;11.57;2.85;;;;;;;19.21;nan;99709.59;5073627;28;20194;-47
2023/04/12 10:56:32;;;;;;;7.40;2.33;;;;;;;19.91;nan;99716.81;5074029;28;20051;-46
2023/04/12 10:59:00;;;;;;;9.70;2.47;;;;;;;20.59;nan;99710.66;5073841;28;20032;-46
2023/04/12 11:01:26;;;;;;;5.90;2.45;;;;;;;21.25;nan;99712.44;5089589;28;20059;-46
2023/04/12 11:04:14;;;;;;;4.75;1.67;;;;;;;21.28;nan;99711.31;5072256;28;20040;-48
2023/04/12 11:06:48;;;;;;;5.75;2.08;;;;;;;21.84;nan;99703.22;5073633;28;20513;-47
2023/04/12 11:09:37;;;;;;;5.25;1.85;;;;;;;21.68;nan;99714.59;5073354;28;20131;-49
2023/04/12 11:12:02;;;;;;;5.55;1.50;;;;;;;20.91;nan;99726.41;5073387;28;20045;-51
2023/04/12 11:14:33;;;;;;;3.90;1.87;;;;;;;19.45;nan;99670.16;5073576;28;20430;-48
2023/04/12 11:17:04;;;;;;;7.07;2.00;;;;;;;18.94;nan;99722.63;5072354;28;20402;-47
2023/04/12 11:19:31;;;;;;;4.82;1.60;;;;;;;18.62;nan;99689.81;5073377;28;20503;-47
2023/04/12 11:21:56;;;;;;;8.27;2.10;;;;;;;19.04;nan;99715.50;5073191;28;20476;-50
2023/04/12 11:24:22;;;;;;;4.00;1.67;;;;;;;18.33;nan;99653.06;5054953;28;20036;-46
2023/04/12 11:26:48;;;;;;;7.50;1.88;;;;;;;18.64;nan;99720.69;5071638;28;20044;-46